ENOA

Oseberg A Platform Heliport

Norway
METAR ENOA 241120Z 33020KT 9999 FEW025 09/02 Q1027 W///S5
Observed Flight Rules
Sep-24 @ 11:20 UTC (12 minutes ago) Visual Flight Rules
Wind Visibility Clouds
330° at 20 knots 10,000+ meters
  • Few at 2,500' AGL
Temperatures Readings
Current 9°C / 48°F
Dewpoint 2°C / 36°F
Humidity 62%
Altimeter 30.32" Hg
Pressure 1027 hPa
Elevation 5
METAR ENOA 241120Z 33020KT 9999 FEW025 09/02 Q1027 W///S5
Observed Flight Rules
Sep-24 @ 11:20 UTC
(12 minutes ago)
VFR
Wind Visibility
330° at 20 knots 10,000+ meters
Clouds
  • Few at 2,500' AGL
Temperature Dewpoint
9°C / 48°F 2°C / 36°F
Humidity Altimeter Pressure
62% 30.32" Hg 1027 hPa